Aérodrome :
LOGIN :

S'inscrire | Disclaimer

   EN    FR    IT 

 










Légende :    VFR   VFR Marginal   IFR   IFR Intensif   IFR Très Intensif
Visi : 
Plafond : 
>= 8 km
>= 3000ft
5 à 8 km
1000 à 3000 ft
1500m à 5 km
500 à 1000 ft
800 à 1500m
200 à 500 ft
< 800m
< 200 ft
Symboles :   Orages  Brouillard  Fortes neiges  Fortes précipitations  Vent > 20 kt
SIGMETs :   Divers  Orages  Givrage  Turbulence  Onde Orograph.  Cendres Volcan.






- Altitude de l'aérodrome : 297 ft
- Code IATA : UIP


LFRQ - Quimper Pluguffan

DERNIER METAR :
  • 271930Z AUTO 27007KT CAVOK 09/08 Q1013 TEMPO 4000 SHRA BKN020CB

METARs EXPIRÉS :
  • 271900Z AUTO 28008KT 9999 FEW019 09/08 Q1013 TEMPO 4000 SHRA BKN020CB
  • 271830Z AUTO 27006KT CAVOK 09/09 Q1013 TEMPO 4000 SHRA BKN020CB
  • 271800Z AUTO 27006KT 9000 FEW018 BKN036 BKN240 10/10 Q1013 TEMPO 4000 SHRA BKN020CB
  • 271730Z AUTO 26005KT 9000 FEW019 BKN027 BKN035 11/10 Q1013 TEMPO 4000 SHRA BKN020CB
  • 271700Z AUTO 26005KT 9000 FEW018 SCT200 OVC240 11/11 Q1013 TEMPO VRB15G25KT 3000 SHRA BKN008 BKN015TCU

TAF TAF LFRQ
Valide du 27 à 18h jusqu'au 28 à 18h UTC


271700Z 2718/2818 26005KT 9999 SCT020
BECMG 2718/2720 26010KT
PROB30
TEMPO 2718/2722 4000 SHRA BKN020CB
TEMPO 2802/2809 3000 SHRA BKN012CB
PROB40
TEMPO 2802/2809 VRB20G40KT 1500 TSRAGS
BECMG 2807/2809 30015G25KT
TEMPO 2809/2815 30020G35KT 3000 SHRA BKN020CB
BECMG 2815/2817 30010KT
PROB40
TEMPO 2815/2818 4000 SHRA BKN020CB



MET'MAP, la Météo Aéronautique d'un coup d'oeil ! - Copyright ORBIFLY Décembre 2007 - Disclaimer

ORBIFLY MET'MAP TEAM :

Programmation & Développement : Alexandra Zaïnal
Sur une idée originale de : Baudouin d'Aumeries
Soutien technique & logistique : Manuel Goepfert
Assistance : Marc-Olivier Méhu




SOURCES & CREDITS :

   NOAA